createdAt,value
2019-01-24T00:00:52.480Z,81.30
2019-01-24T00:01:52.465Z,85.80
2019-01-24T00:02:52.450Z,78.50
2019-01-24T00:03:52.434Z,82.70
2019-01-24T00:04:52.416Z,78.40
2019-01-24T00:05:52.402Z,82.10
2019-01-24T00:06:52.384Z,79.70
2019-01-24T00:07:52.372Z,83.10
2019-01-24T00:08:52.854Z,82.90
2019-01-24T00:09:52.340Z,83.60
2019-01-24T00:10:52.338Z,82.20
2019-01-24T00:11:52.310Z,77.70
2019-01-24T00:12:52.292Z,84.90
2019-01-24T00:13:52.281Z,81.90
2019-01-24T00:14:52.282Z,81.30
2019-01-24T00:15:52.250Z,82.60
2019-01-24T00:16:52.234Z,79.40
2019-01-24T00:17:52.214Z,81.10
2019-01-24T00:18:52.201Z,85.40
2019-01-24T00:19:52.184Z,81.20
2019-01-24T00:20:52.171Z,81.60
2019-01-24T00:21:52.153Z,82.30
2019-01-24T00:22:52.139Z,80.60
2019-01-24T00:23:52.122Z,84.60
2019-01-24T00:24:52.110Z,83.10
2019-01-24T00:25:52.090Z,81.90
2019-01-24T00:26:52.078Z,87.20
2019-01-24T00:27:52.061Z,85.80
2019-01-24T00:28:52.047Z,89.40
2019-01-24T00:29:52.028Z,87.70
2019-01-24T00:30:52.025Z,86.00
2019-01-24T00:31:51.997Z,87.80
2019-01-24T00:32:51.984Z,86.10
2019-01-24T00:33:51.967Z,88.20
2019-01-24T00:34:51.953Z,90.80
2019-01-24T00:35:51.935Z,87.80
2019-01-24T00:36:51.925Z,82.80
2019-01-24T00:37:51.904Z,88.80
2019-01-24T00:38:51.891Z,85.90
2019-01-24T00:39:51.873Z,87.30
2019-01-24T00:40:51.862Z,88.70
2019-01-24T00:41:51.842Z,83.40
2019-01-24T00:42:51.829Z,89.60
2019-01-24T00:43:51.812Z,86.30
2019-01-24T00:44:51.798Z,85.20
2019-01-24T00:45:51.782Z,87.60
2019-01-24T00:46:51.767Z,86.50
2019-01-24T00:47:51.750Z,86.20
2019-01-24T00:48:51.736Z,86.60
2019-01-24T00:49:51.718Z,92.40
2019-01-24T00:50:51.705Z,87.20
2019-01-24T00:51:51.692Z,91.30
2019-01-24T00:52:51.676Z,88.20
2019-01-24T00:53:51.656Z,94.50
2019-01-24T00:54:51.643Z,88.20
2019-01-24T00:55:51.625Z,89.60
2019-01-24T00:56:51.613Z,95.00
2019-01-24T00:57:51.593Z,93.10
2019-01-24T00:58:51.591Z,90.00
2019-01-24T00:59:51.566Z,93.00
2019-01-24T01:00:51.549Z,91.00
2019-01-24T01:01:51.531Z,96.70
2019-01-24T01:02:51.517Z,94.80
2019-01-24T01:03:51.500Z,96.00
2019-01-24T01:04:51.487Z,94.80
2019-01-24T01:05:51.470Z,89.90
2019-01-24T01:06:51.454Z,97.70
2019-01-24T01:07:51.437Z,91.70
2019-01-24T01:08:51.423Z,97.60
2019-01-24T01:09:51.405Z,95.00
2019-01-24T01:10:51.409Z,94.30
2019-01-24T01:11:51.374Z,96.50
2019-01-24T01:12:51.362Z,99.90
2019-01-24T01:13:51.349Z,95.10
2019-01-24T01:14:51.328Z,95.90
2019-01-24T01:15:51.310Z,94.60
2019-01-24T01:16:51.297Z,97.50
2019-01-24T01:17:51.278Z,96.20
2019-01-24T01:18:51.264Z,96.00
2019-01-24T01:19:51.246Z,95.40
2019-01-24T01:20:51.233Z,102.30
2019-01-24T01:21:51.214Z,99.80
2019-01-24T01:22:51.242Z,96.80
2019-01-24T01:23:51.183Z,96.10
2019-01-24T01:24:51.169Z,95.40
2019-01-24T01:25:51.152Z,95.70
2019-01-24T01:26:51.137Z,98.70
2019-01-24T01:27:51.119Z,97.60
2019-01-24T01:28:51.108Z,97.50
2019-01-24T01:29:51.086Z,98.00
2019-01-24T01:30:51.075Z,100.20
2019-01-24T01:31:51.055Z,101.70
2019-01-24T01:32:51.041Z,101.20
2019-01-24T01:33:51.024Z,99.60
2019-01-24T01:34:51.009Z,97.90
2019-01-24T01:35:50.991Z,99.70
2019-01-24T01:36:50.979Z,102.50
2019-01-24T01:37:50.958Z,102.50
2019-01-24T01:38:50.944Z,98.00
2019-01-24T01:39:50.945Z,100.60
2019-01-24T01:40:50.913Z,101.90
2019-01-24T01:41:50.894Z,97.80
2019-01-24T01:42:50.881Z,97.00
2019-01-24T01:43:50.886Z,105.00
2019-01-24T01:44:50.850Z,99.30
2019-01-24T01:45:50.830Z,103.40
2019-01-24T01:46:50.816Z,101.40
2019-01-24T01:47:50.798Z,101.40
2019-01-24T01:48:50.786Z,100.70
2019-01-24T01:49:50.771Z,99.30
2019-01-24T01:50:51.002Z,96.60
2019-01-24T01:51:50.733Z,99.70
2019-01-24T01:52:50.720Z,100.60
2019-01-24T01:53:50.703Z,104.70
2019-01-24T01:54:50.688Z,105.20
2019-01-24T01:55:50.669Z,102.30
2019-01-24T01:56:50.656Z,97.50
2019-01-24T01:57:50.637Z,103.20
2019-01-24T01:58:50.665Z,100.40
2019-01-24T01:59:50.605Z,105.40
2019-01-24T02:00:50.591Z,109.20
2019-01-24T02:01:50.572Z,96.80
2019-01-24T02:02:50.559Z,102.60
2019-01-24T02:03:50.541Z,99.00
2019-01-24T02:04:50.527Z,100.70
2019-01-24T02:05:50.507Z,99.80
2019-01-24T02:06:50.494Z,99.90
2019-01-24T02:07:50.477Z,98.40
2019-01-24T02:08:50.476Z,97.50
2019-01-24T02:09:50.443Z,102.90
2019-01-24T02:10:50.430Z,98.60
2019-01-24T02:11:50.415Z,101.10
2019-01-24T02:12:50.399Z,105.80
2019-01-24T02:13:50.379Z,100.00
2019-01-24T02:14:50.365Z,106.30
2019-01-24T02:15:50.347Z,101.00
2019-01-24T02:16:50.333Z,107.10
2019-01-24T02:17:50.314Z,102.30
2019-01-24T02:18:50.301Z,101.30
2019-01-24T02:19:50.282Z,104.10
2019-01-24T02:20:50.270Z,103.20
2019-01-24T02:21:50.249Z,103.30
2019-01-24T02:22:50.236Z,108.40
2019-01-24T02:23:50.217Z,101.20
2019-01-24T02:24:50.204Z,106.90
2019-01-24T02:25:50.188Z,104.70
2019-01-24T02:26:50.171Z,105.90
2019-01-24T02:27:50.153Z,104.30
2019-01-24T02:28:50.142Z,105.00
2019-01-24T02:29:50.120Z,109.30
2019-01-24T02:30:50.108Z,111.00
2019-01-24T02:31:50.091Z,103.00
2019-01-24T02:32:50.076Z,103.80
2019-01-24T02:33:50.056Z,107.10
2019-01-24T02:34:50.064Z,106.20
2019-01-24T02:35:50.024Z,110.00
2019-01-24T02:36:50.009Z,110.00
2019-01-24T02:37:49.992Z,106.70
2019-01-24T02:38:49.980Z,107.70
2019-01-24T02:39:49.961Z,108.20
2019-01-24T02:40:49.977Z,105.30
2019-01-24T02:41:49.925Z,111.20
2019-01-24T02:42:49.916Z,106.90
2019-01-24T02:43:49.896Z,106.00
2019-01-24T02:44:49.879Z,110.70
2019-01-24T02:45:49.885Z,106.70
2019-01-24T02:46:49.846Z,109.00
2019-01-24T02:47:49.836Z,109.00
2019-01-24T02:48:49.819Z,109.10
2019-01-24T02:49:49.804Z,108.90
2019-01-24T02:50:49.781Z,108.20
2019-01-24T02:51:49.772Z,106.80
2019-01-24T02:52:49.748Z,106.00
2019-01-24T02:53:49.757Z,113.30
2019-01-24T02:54:49.714Z,108.50
2019-01-24T02:55:49.697Z,108.20
2019-01-24T02:56:49.682Z,116.00
2019-01-24T02:57:49.663Z,111.20
2019-01-24T02:58:49.650Z,111.60
2019-01-24T02:59:49.641Z,112.40
2019-01-24T03:00:49.620Z,106.90
2019-01-24T03:01:49.596Z,108.00
2019-01-24T03:02:49.585Z,111.20
2019-01-24T03:03:49.565Z,108.00
2019-01-24T03:04:49.551Z,112.50
2019-01-24T03:05:49.556Z,110.00
2019-01-24T03:06:49.517Z,113.40
2019-01-24T03:07:49.498Z,110.70
2019-01-24T03:08:49.484Z,111.50
2019-01-24T03:09:49.482Z,115.50
2019-01-24T03:10:49.452Z,115.10
2019-01-24T03:11:49.434Z,111.80
2019-01-24T03:12:49.421Z,107.30
2019-01-24T03:13:49.400Z,118.30
2019-01-24T03:14:49.386Z,115.00
2019-01-24T03:15:49.368Z,113.30
2019-01-24T03:16:49.352Z,114.60
2019-01-24T03:17:49.332Z,115.40
2019-01-24T03:18:49.318Z,113.20
2019-01-24T03:19:49.301Z,109.50
2019-01-24T03:20:49.302Z,116.50
2019-01-24T03:21:49.265Z,120.10
2019-01-24T03:22:49.251Z,112.70
2019-01-24T03:23:49.233Z,113.50
2019-01-24T03:24:49.218Z,111.50
2019-01-24T03:25:49.198Z,113.90
2019-01-24T03:26:49.184Z,113.70
2019-01-24T03:27:49.169Z,111.40
2019-01-24T03:28:49.152Z,117.40
2019-01-24T03:29:49.132Z,114.20
2019-01-24T03:30:49.121Z,114.90
2019-01-24T03:31:49.398Z,116.40
2019-01-24T03:32:49.084Z,118.20
2019-01-24T03:33:49.063Z,112.90
2019-01-24T03:34:49.049Z,114.60
2019-01-24T03:35:49.030Z,119.30
2019-01-24T03:36:49.015Z,110.10
2019-01-24T03:37:48.996Z,117.10
2019-01-24T03:38:48.982Z,114.20
2019-01-24T03:39:48.963Z,111.00
2019-01-24T03:40:48.954Z,116.30
2019-01-24T03:41:48.929Z,123.20
2019-01-24T03:42:48.939Z,111.20
2019-01-24T03:43:48.896Z,116.70
2019-01-24T03:44:48.882Z,115.60
2019-01-24T03:45:48.861Z,118.90
2019-01-24T03:46:48.848Z,117.60
2019-01-24T03:47:48.828Z,113.50
2019-01-24T03:48:48.813Z,117.40
2019-01-24T03:49:48.795Z,112.70
2019-01-24T03:50:48.779Z,115.30
2019-01-24T03:51:48.761Z,117.60
2019-01-24T03:52:48.746Z,114.80
2019-01-24T03:53:48.733Z,115.90
2019-01-24T03:54:48.711Z,117.30
2019-01-24T03:55:48.693Z,114.20
2019-01-24T03:56:48.678Z,112.30
2019-01-24T03:57:48.661Z,116.00
2019-01-24T03:58:48.644Z,112.00
2019-01-24T03:59:48.624Z,108.80
2019-01-24T04:00:48.610Z,112.90
2019-01-24T04:01:48.604Z,113.40
2019-01-24T04:02:48.576Z,109.60
2019-01-24T04:03:48.556Z,113.60
2019-01-24T04:04:48.571Z,118.40
2019-01-24T04:05:48.522Z,111.90
2019-01-24T04:06:48.509Z,108.50
2019-01-24T04:07:48.488Z,110.30
2019-01-24T04:08:48.475Z,115.40
2019-01-24T04:09:48.455Z,113.30
2019-01-24T04:10:48.439Z,110.90
2019-01-24T04:11:48.420Z,112.30
2019-01-24T04:12:48.406Z,112.20
2019-01-24T04:13:48.386Z,107.40
2019-01-24T04:14:48.371Z,117.00
2019-01-24T04:15:48.353Z,115.40
2019-01-24T04:16:48.341Z,113.90
2019-01-24T04:17:48.317Z,102.40
2019-01-24T04:18:48.305Z,114.10
2019-01-24T04:19:48.284Z,117.10
2019-01-24T04:20:48.270Z,106.70
2019-01-24T04:21:48.250Z,112.10
2019-01-24T04:22:48.239Z,109.00
2019-01-24T04:23:48.216Z,110.00
2019-01-24T04:24:48.202Z,112.40
2019-01-24T04:25:48.182Z,109.70
2019-01-24T04:26:48.169Z,106.30
2019-01-24T04:27:48.162Z,106.80
2019-01-24T04:28:48.135Z,109.00
2019-01-24T04:29:48.115Z,103.30
2019-01-24T04:30:48.098Z,111.10
2019-01-24T04:31:48.085Z,110.10
2019-01-24T04:32:48.067Z,109.40
2019-01-24T04:33:48.051Z,110.00
2019-01-24T04:34:48.032Z,106.30
2019-01-24T04:35:48.017Z,112.10
2019-01-24T04:36:47.999Z,106.50
2019-01-24T04:37:47.983Z,108.40
2019-01-24T04:38:47.967Z,115.00
2019-01-24T04:39:47.952Z,110.80
2019-01-24T04:40:47.932Z,108.60
2019-01-24T04:41:47.917Z,103.90
2019-01-24T04:42:47.900Z,110.50
2019-01-24T04:43:47.894Z,106.90
2019-01-24T04:44:47.870Z,106.00
2019-01-24T04:45:47.853Z,103.50
2019-01-24T04:46:47.833Z,110.40
2019-01-24T04:47:47.819Z,101.70
2019-01-24T04:48:47.800Z,103.20
2019-01-24T04:49:47.785Z,106.20
2019-01-24T04:50:47.767Z,108.80
2019-01-24T04:51:47.753Z,110.80
2019-01-24T04:52:47.735Z,109.90
2019-01-24T04:53:47.721Z,103.70
2019-01-24T04:54:47.702Z,110.20
2019-01-24T04:55:47.687Z,106.00
2019-01-24T04:56:47.669Z,108.20
2019-01-24T04:57:47.707Z,104.90
2019-01-24T04:58:47.637Z,102.00
2019-01-24T04:59:47.623Z,103.60
2019-01-24T05:00:47.604Z,103.90
2019-01-24T05:01:47.591Z,102.90
2019-01-24T05:02:47.571Z,101.80
2019-01-24T05:03:47.556Z,99.20
2019-01-24T05:04:47.539Z,101.90
2019-01-24T05:05:47.523Z,104.80
2019-01-24T05:06:47.505Z,110.90
2019-01-24T05:07:47.491Z,104.40
2019-01-24T05:08:47.474Z,100.80
2019-01-24T05:09:47.458Z,103.80
2019-01-24T05:10:47.439Z,101.80
2019-01-24T05:11:47.438Z,103.00
2019-01-24T05:12:47.408Z,104.50
2019-01-24T05:13:47.393Z,100.40
2019-01-24T05:14:47.378Z,102.60
2019-01-24T05:15:47.362Z,101.40
2019-01-24T05:16:47.356Z,103.90
2019-01-24T05:17:47.326Z,101.10
2019-01-24T05:18:47.309Z,105.00
2019-01-24T05:19:47.296Z,98.30
2019-01-24T05:20:47.279Z,101.50
2019-01-24T05:21:47.266Z,102.80
2019-01-24T05:22:47.243Z,101.30
2019-01-24T05:23:47.229Z,105.40
2019-01-24T05:24:47.210Z,104.10
2019-01-24T05:25:47.199Z,103.90
2019-01-24T05:26:47.178Z,104.60
2019-01-24T05:27:47.165Z,104.70
2019-01-24T05:28:47.150Z,91.60
2019-01-24T05:29:47.132Z,98.40
2019-01-24T05:30:47.113Z,100.90
2019-01-24T05:31:47.100Z,93.10
2019-01-24T05:32:47.083Z,98.70
2019-01-24T05:33:47.067Z,101.20
2019-01-24T05:34:47.049Z,92.90
2019-01-24T05:35:47.036Z,97.30
2019-01-24T05:36:47.025Z,98.60
2019-01-24T05:37:47.047Z,99.10
2019-01-24T05:38:46.984Z,99.00
2019-01-24T05:39:46.971Z,92.00
2019-01-24T05:40:46.953Z,94.40
2019-01-24T05:41:46.939Z,98.00
2019-01-24T05:42:46.919Z,94.80
2019-01-24T05:43:46.907Z,96.30
2019-01-24T05:44:46.889Z,92.60
2019-01-24T05:45:46.877Z,97.20
2019-01-24T05:46:46.858Z,91.80
2019-01-24T05:47:46.841Z,93.50
2019-01-24T05:48:46.828Z,91.20
2019-01-24T05:49:46.841Z,92.30
2019-01-24T05:50:46.790Z,95.10
2019-01-24T05:51:46.781Z,91.10
2019-01-24T05:52:46.759Z,91.40
2019-01-24T05:53:46.744Z,91.10
2019-01-24T05:54:46.727Z,88.60
2019-01-24T05:55:46.712Z,92.40
2019-01-24T05:56:46.695Z,91.30
2019-01-24T05:57:46.680Z,94.90
2019-01-24T05:58:46.668Z,95.10
2019-01-24T05:59:46.648Z,97.40
2019-01-24T06:00:46.630Z,98.50
2019-01-24T06:01:46.615Z,97.00
2019-01-24T06:02:46.597Z,90.30
2019-01-24T06:03:46.583Z,89.40
2019-01-24T06:04:46.566Z,92.00
2019-01-24T06:05:46.551Z,88.50
2019-01-24T06:06:46.534Z,93.10
2019-01-24T06:07:46.521Z,87.00
2019-01-24T06:08:46.504Z,82.70
2019-01-24T06:09:46.488Z,83.40
2019-01-24T06:10:46.470Z,86.40
2019-01-24T06:11:46.457Z,88.40
2019-01-24T06:12:46.440Z,89.30
2019-01-24T06:13:46.429Z,82.80
2019-01-24T06:14:46.406Z,91.10
2019-01-24T06:15:46.392Z,87.60
2019-01-24T06:16:46.375Z,89.40
2019-01-24T06:17:46.363Z,91.20
2019-01-24T06:18:46.347Z,88.00
2019-01-24T06:19:46.328Z,87.50
2019-01-24T06:20:46.310Z,97.30
2019-01-24T06:21:46.295Z,93.30
2019-01-24T06:22:46.277Z,97.70
2019-01-24T06:23:46.267Z,94.00
2019-01-24T06:24:46.245Z,90.80
2019-01-24T06:25:46.230Z,91.30
2019-01-24T06:26:46.213Z,93.70
2019-01-24T06:27:46.201Z,94.30
2019-01-24T06:28:46.181Z,90.10
2019-01-24T06:29:46.166Z,96.30
2019-01-24T06:30:46.148Z,90.00
2019-01-24T06:31:46.136Z,88.40
2019-01-24T06:32:46.117Z,93.70
2019-01-24T06:33:46.103Z,84.80
2019-01-24T06:34:46.085Z,87.40
2019-01-24T06:35:48.938Z,88.60
2019-01-24T06:36:46.052Z,88.60
2019-01-24T06:37:46.038Z,89.20
2019-01-24T06:38:46.021Z,90.60
2019-01-24T06:39:46.006Z,91.50
2019-01-24T06:40:45.988Z,95.80
2019-01-24T06:41:45.973Z,93.70
2019-01-24T06:42:45.955Z,95.50
2019-01-24T06:43:45.954Z,88.30
2019-01-24T06:44:45.926Z,95.40
2019-01-24T06:45:45.908Z,94.20
2019-01-24T06:46:45.892Z,89.20
2019-01-24T06:47:45.880Z,90.80
2019-01-24T06:48:45.857Z,94.60
2019-01-24T06:49:45.850Z,91.00
2019-01-24T06:50:45.824Z,91.50
2019-01-24T06:51:45.813Z,93.30
2019-01-24T06:52:45.795Z,92.50
2019-01-24T06:53:45.779Z,93.70
2019-01-24T06:54:45.761Z,93.20
2019-01-24T06:55:45.748Z,87.80
2019-01-24T06:56:45.738Z,89.80
2019-01-24T06:57:45.714Z,92.40
2019-01-24T06:58:45.697Z,94.30
2019-01-24T06:59:45.682Z,93.00
2019-01-24T07:00:45.665Z,85.40
2019-01-24T07:01:45.650Z,92.40
2019-01-24T07:02:45.632Z,96.30
2019-01-24T07:03:45.619Z,93.90
2019-01-24T07:04:45.600Z,88.70
2019-01-24T07:05:45.586Z,95.20
2019-01-24T07:06:45.567Z,91.00
2019-01-24T07:07:45.554Z,97.70
2019-01-24T07:08:45.535Z,95.80
2019-01-24T07:09:45.561Z,91.30
2019-01-24T07:10:45.503Z,89.90
2019-01-24T07:11:45.490Z,96.60
2019-01-24T07:12:45.474Z,86.60
2019-01-24T07:13:45.456Z,90.20
2019-01-24T07:14:45.437Z,91.60
2019-01-24T07:15:45.424Z,80.00
2019-01-24T07:16:45.405Z,90.20
2019-01-24T07:17:45.390Z,83.90
2019-01-24T07:18:45.373Z,93.20
2019-01-24T07:19:45.358Z,90.00
2019-01-24T07:20:45.342Z,87.70
2019-01-24T07:21:45.325Z,94.00
2019-01-24T07:22:45.307Z,96.20
2019-01-24T07:23:45.294Z,86.20
2019-01-24T07:24:45.275Z,90.50
2019-01-24T07:25:45.259Z,101.40
2019-01-24T07:26:45.242Z,94.70
2019-01-24T07:27:45.228Z,82.40
2019-01-24T07:28:45.210Z,80.80
2019-01-24T07:29:45.198Z,91.10
2019-01-24T07:30:45.177Z,90.40
2019-01-24T07:31:45.163Z,91.20
2019-01-24T07:32:45.145Z,86.70
2019-01-24T07:33:45.130Z,93.00
2019-01-24T07:34:45.114Z,89.00
2019-01-24T07:35:45.098Z,93.20
2019-01-24T07:36:45.080Z,89.00
2019-01-24T07:37:45.065Z,94.00
2019-01-24T07:38:45.047Z,89.50
2019-01-24T07:39:45.033Z,91.20
2019-01-24T07:40:45.018Z,94.40
2019-01-24T07:41:45.001Z,92.30
2019-01-24T07:42:44.984Z,93.90
2019-01-24T07:43:44.969Z,90.60
2019-01-24T07:44:44.951Z,90.50
2019-01-24T07:45:44.937Z,95.50
2019-01-24T07:46:44.919Z,93.30
2019-01-24T07:47:44.907Z,90.20
2019-01-24T07:48:44.888Z,87.90
2019-01-24T07:49:44.874Z,93.80
2019-01-24T07:50:44.864Z,92.70
2019-01-24T07:51:44.842Z,96.00
2019-01-24T07:52:44.827Z,94.40
2019-01-24T07:53:44.819Z,91.00
2019-01-24T07:54:44.808Z,85.90
2019-01-24T07:55:44.778Z,88.70
2019-01-24T07:56:44.761Z,90.80
2019-01-24T07:57:44.748Z,91.90
2019-01-24T07:58:44.728Z,91.10
2019-01-24T07:59:44.717Z,90.40
2019-01-24T08:00:44.697Z,92.10
2019-01-24T08:01:44.682Z,93.50
2019-01-24T08:02:44.664Z,92.00
2019-01-24T08:03:44.652Z,88.70
2019-01-24T08:04:44.633Z,86.90
2019-01-24T08:05:44.618Z,84.80
2019-01-24T08:06:44.600Z,89.10
2019-01-24T08:07:44.591Z,89.30
2019-01-24T08:08:44.570Z,93.50
2019-01-24T08:09:44.556Z,89.60
2019-01-24T08:10:44.538Z,90.60
2019-01-24T08:11:44.526Z,96.10
2019-01-24T08:12:44.507Z,93.30
2019-01-24T08:13:44.495Z,91.80
2019-01-24T08:14:44.475Z,95.50
2019-01-24T08:15:45.751Z,93.30
2019-01-24T08:16:44.445Z,89.80
2019-01-24T08:17:44.430Z,100.20
2019-01-24T08:18:44.416Z,95.10
2019-01-24T08:19:44.400Z,88.60
2019-01-24T08:20:44.383Z,90.50
2019-01-24T08:21:44.368Z,93.60
2019-01-24T08:22:44.354Z,88.40
2019-01-24T08:23:44.338Z,91.90
2019-01-24T08:24:44.320Z,91.00
2019-01-24T08:25:44.308Z,94.80
2019-01-24T08:26:44.288Z,96.90
2019-01-24T08:27:44.275Z,97.30
2019-01-24T08:28:44.258Z,94.10
2019-01-24T08:29:44.243Z,93.70
2019-01-24T08:30:44.226Z,91.40
2019-01-24T08:31:44.213Z,100.40
2019-01-24T08:32:44.195Z,91.90
2019-01-24T08:33:44.181Z,92.40
2019-01-24T08:34:44.164Z,99.00
2019-01-24T08:35:44.150Z,93.00
2019-01-24T08:36:44.132Z,91.50
2019-01-24T08:37:44.118Z,93.00
2019-01-24T08:38:44.101Z,91.60
2019-01-24T08:39:44.091Z,91.20
2019-01-24T08:40:44.072Z,88.10
2019-01-24T08:41:44.056Z,94.50
2019-01-24T08:42:44.040Z,92.70
2019-01-24T08:43:44.025Z,96.20
2019-01-24T08:44:44.008Z,97.00
2019-01-24T08:45:43.994Z,98.80
2019-01-24T08:46:43.978Z,95.60
2019-01-24T08:47:43.960Z,98.80
2019-01-24T08:48:43.949Z,99.70
2019-01-24T08:49:43.932Z,97.70
2019-01-24T08:50:43.930Z,96.90
2019-01-24T08:51:43.899Z,96.20
2019-01-24T08:52:43.889Z,89.30
2019-01-24T08:53:43.875Z,91.60
2019-01-24T08:54:43.854Z,90.50
2019-01-24T08:55:43.835Z,92.70
2019-01-24T08:56:43.821Z,92.80
2019-01-24T08:57:43.803Z,91.50
2019-01-24T08:58:43.790Z,97.10
2019-01-24T08:59:43.773Z,97.40
2019-01-24T09:00:43.758Z,98.90
2019-01-24T09:01:43.747Z,88.30
2019-01-24T09:02:43.726Z,93.20
2019-01-24T09:03:43.710Z,88.10
2019-01-24T09:04:43.694Z,90.60
2019-01-24T09:05:43.677Z,99.70
2019-01-24T09:06:43.661Z,94.50
2019-01-24T09:07:43.644Z,95.80
2019-01-24T09:08:43.633Z,94.40
2019-01-24T09:09:43.611Z,95.50
2019-01-24T09:10:43.597Z,95.40
2019-01-24T09:11:43.580Z,91.50
2019-01-24T09:12:43.574Z,94.70
2019-01-24T09:13:43.547Z,96.10
2019-01-24T09:14:43.535Z,95.20
2019-01-24T09:15:43.516Z,92.60
2019-01-24T09:16:43.505Z,99.30
2019-01-24T09:17:43.483Z,95.80
2019-01-24T09:18:43.470Z,92.40
2019-01-24T09:19:43.453Z,94.60
2019-01-24T09:20:43.445Z,97.60
2019-01-24T09:21:43.422Z,103.20
2019-01-24T09:22:43.407Z,102.00
2019-01-24T09:23:43.393Z,100.00
2019-01-24T09:24:43.378Z,97.30
2019-01-24T09:25:43.358Z,105.50
2019-01-24T09:26:43.354Z,93.80
2019-01-24T09:27:43.328Z,95.20
2019-01-24T09:28:43.314Z,98.70
2019-01-24T09:29:43.296Z,95.90
2019-01-24T09:30:43.282Z,93.10
2019-01-24T09:31:43.265Z,100.40
2019-01-24T09:32:43.256Z,96.00
2019-01-24T09:33:43.233Z,96.70
2019-01-24T09:34:43.221Z,105.50
2019-01-24T09:35:43.203Z,101.00
2019-01-24T09:36:43.190Z,99.40
2019-01-24T09:37:43.171Z,97.50
2019-01-24T09:38:43.158Z,105.20
2019-01-24T09:39:43.144Z,96.40
2019-01-24T09:40:43.128Z,99.10
2019-01-24T09:41:43.110Z,102.50
2019-01-24T09:42:43.096Z,96.00
2019-01-24T09:43:43.080Z,95.80
2019-01-24T09:44:43.066Z,101.00
2019-01-24T09:45:43.048Z,100.40
2019-01-24T09:46:43.035Z,97.10
2019-01-24T09:47:43.018Z,98.00
2019-01-24T09:48:43.005Z,105.40
2019-01-24T09:49:42.995Z,99.70
2019-01-24T09:50:42.975Z,102.60
2019-01-24T09:51:42.957Z,98.60
2019-01-24T09:52:42.947Z,100.40
2019-01-24T09:53:42.940Z,103.40
2019-01-24T09:54:42.915Z,100.10
2019-01-24T09:55:42.897Z,100.90
2019-01-24T09:56:42.885Z,98.30
2019-01-24T09:57:42.867Z,100.20
2019-01-24T09:58:42.854Z,98.40
2019-01-24T09:59:42.837Z,98.70
2019-01-24T10:00:42.825Z,96.50
2019-01-24T10:01:42.807Z,98.30
2019-01-24T10:02:42.795Z,101.90
2019-01-24T10:03:42.777Z,101.90
2019-01-24T10:04:42.765Z,99.60
2019-01-24T10:05:42.748Z,96.10
2019-01-24T10:06:42.735Z,102.30
2019-01-24T10:07:42.718Z,103.50
2019-01-24T10:08:42.706Z,96.40
2019-01-24T10:09:42.687Z,96.00
2019-01-24T10:10:42.675Z,101.70
2019-01-24T10:11:42.658Z,101.50
2019-01-24T10:12:42.648Z,99.70
2019-01-24T10:13:42.628Z,99.60
2019-01-24T10:14:42.615Z,98.50
2019-01-24T10:15:42.598Z,102.30
2019-01-24T10:16:42.587Z,102.80
2019-01-24T10:17:42.568Z,95.90
2019-01-24T10:18:42.556Z,91.40
2019-01-24T10:19:42.538Z,93.80
2019-01-24T10:20:42.525Z,101.40
2019-01-24T10:21:42.508Z,96.80
2019-01-24T10:22:42.496Z,93.50
2019-01-24T10:23:42.479Z,97.10
2019-01-24T10:24:42.468Z,100.60
2019-01-24T10:25:42.448Z,97.00
2019-01-24T10:26:42.436Z,93.60
2019-01-24T10:27:42.418Z,97.70
2019-01-24T10:28:42.408Z,97.00
2019-01-24T10:29:42.388Z,99.40
2019-01-24T10:30:43.342Z,98.40
2019-01-24T10:31:42.358Z,96.60
2019-01-24T10:32:42.345Z,102.10
2019-01-24T10:33:42.327Z,99.60
2019-01-24T10:34:42.322Z,100.30
2019-01-24T10:35:42.298Z,97.90
2019-01-24T10:36:43.087Z,103.20
2019-01-24T10:37:42.268Z,99.60
2019-01-24T10:38:42.256Z,104.40
2019-01-24T10:39:42.240Z,102.20
2019-01-24T10:40:42.227Z,94.30
2019-01-24T10:41:42.209Z,102.90
2019-01-24T10:42:42.197Z,93.30
2019-01-24T10:43:42.181Z,90.30
2019-01-24T10:44:42.169Z,102.30
2019-01-24T10:45:42.151Z,102.30
2019-01-24T10:46:42.139Z,98.40
2019-01-24T10:47:42.134Z,95.80
2019-01-24T10:48:42.111Z,95.90
2019-01-24T10:49:42.092Z,95.10
2019-01-24T10:50:42.081Z,99.50
2019-01-24T10:51:42.065Z,95.70
2019-01-24T10:52:42.068Z,96.90
2019-01-24T10:53:42.035Z,92.60
2019-01-24T10:54:42.023Z,96.20
2019-01-24T10:55:42.006Z,92.30
2019-01-24T10:56:42.011Z,95.60
2019-01-24T10:57:41.977Z,99.90
2019-01-24T10:58:41.964Z,97.10
2019-01-24T10:59:41.947Z,98.20
2019-01-24T11:00:41.935Z,93.70
2019-01-24T11:01:41.917Z,94.80
2019-01-24T11:02:41.906Z,96.80
2019-01-24T11:03:41.891Z,92.80
2019-01-24T11:04:41.876Z,98.90
2019-01-24T11:05:41.857Z,99.20
2019-01-24T11:06:41.844Z,97.20
2019-01-24T11:07:41.828Z,101.40
2019-01-24T11:08:41.816Z,97.70
2019-01-24T11:09:41.798Z,91.30
2019-01-24T11:10:41.784Z,89.30
2019-01-24T11:11:41.767Z,96.90
2019-01-24T11:12:41.759Z,102.10
2019-01-24T11:13:41.739Z,101.40
2019-01-24T11:14:41.724Z,99.30
2019-01-24T11:15:41.707Z,96.60
2019-01-24T11:16:41.694Z,94.60
2019-01-24T11:17:41.677Z,99.90
2019-01-24T11:18:41.663Z,101.10
2019-01-24T11:19:41.646Z,91.90
2019-01-24T11:20:41.634Z,101.30
2019-01-24T11:21:41.616Z,96.70
2019-01-24T11:22:41.603Z,92.60
2019-01-24T11:23:41.586Z,101.40
2019-01-24T11:24:41.576Z,101.30
2019-01-24T11:25:41.556Z,95.10
2019-01-24T11:26:41.543Z,104.40
2019-01-24T11:27:41.526Z,104.80
2019-01-24T11:28:41.513Z,95.10
2019-01-24T11:29:41.497Z,101.20
2019-01-24T11:30:41.484Z,102.10
2019-01-24T11:31:41.466Z,96.10
2019-01-24T11:32:41.454Z,98.80
2019-01-24T11:33:41.436Z,98.00
2019-01-24T11:34:41.423Z,97.80
2019-01-24T11:35:41.407Z,100.30
2019-01-24T11:36:41.394Z,100.80
2019-01-24T11:37:41.377Z,92.40
2019-01-24T11:38:41.365Z,93.10
2019-01-24T11:39:41.348Z,93.00
2019-01-24T11:40:41.336Z,100.70
2019-01-24T11:41:41.318Z,90.90
2019-01-24T11:42:41.308Z,95.50
2019-01-24T11:43:41.289Z,94.10
2019-01-24T11:44:41.280Z,91.70
2019-01-24T11:45:41.259Z,98.00
2019-01-24T11:46:41.247Z,98.40
2019-01-24T11:47:41.230Z,95.10
2019-01-24T11:48:41.217Z,93.40
2019-01-24T11:49:41.200Z,100.90
2019-01-24T11:50:41.187Z,100.40
2019-01-24T11:51:41.174Z,99.50
2019-01-24T11:52:41.160Z,99.40
2019-01-24T11:53:41.141Z,98.20
2019-01-24T11:54:41.139Z,99.00
2019-01-24T11:55:41.115Z,100.90
2019-01-24T11:56:41.099Z,106.40
2019-01-24T11:57:41.083Z,98.90
2019-01-24T11:58:41.082Z,97.80
2019-01-24T11:59:41.055Z,94.50
2019-01-24T12:00:41.044Z,91.60
2019-01-24T12:01:41.025Z,95.10
2019-01-24T12:02:41.012Z,91.80
2019-01-24T12:03:40.996Z,96.10
2019-01-24T12:04:40.984Z,93.00
2019-01-24T12:05:40.968Z,88.90
2019-01-24T12:06:40.954Z,97.80
2019-01-24T12:07:40.939Z,92.40
2019-01-24T12:08:40.926Z,87.70
2019-01-24T12:09:40.908Z,86.90
2019-01-24T12:10:40.896Z,94.60
2019-01-24T12:11:40.880Z,91.50
2019-01-24T12:12:40.867Z,92.50
2019-01-24T12:13:40.855Z,91.70
2019-01-24T12:14:40.838Z,94.30
2019-01-24T12:15:40.830Z,94.50
2019-01-24T12:16:40.808Z,97.10
2019-01-24T12:17:40.791Z,94.70
2019-01-24T12:18:40.779Z,87.40
2019-01-24T12:19:40.762Z,89.90
2019-01-24T12:20:40.749Z,94.90
2019-01-24T12:21:40.732Z,93.70
2019-01-24T12:22:40.720Z,90.10
2019-01-24T12:23:40.703Z,96.50
2019-01-24T12:24:40.691Z,94.30
2019-01-24T12:25:40.674Z,98.60
2019-01-24T12:26:40.661Z,91.50
2019-01-24T12:27:40.646Z,82.20
2019-01-24T12:28:40.633Z,90.10
2019-01-24T12:29:40.615Z,82.30
2019-01-24T12:30:40.607Z,90.20
2019-01-24T12:31:40.586Z,89.10
2019-01-24T12:32:40.573Z,93.00
2019-01-24T12:33:40.556Z,93.80
2019-01-24T12:34:40.543Z,92.30
2019-01-24T12:35:40.528Z,88.60
2019-01-24T12:36:40.516Z,88.90
2019-01-24T12:37:40.497Z,96.10
2019-01-24T12:38:40.484Z,95.90
2019-01-24T12:39:40.467Z,94.60
2019-01-24T12:40:40.454Z,95.50
2019-01-24T12:41:40.438Z,91.60
2019-01-24T12:42:40.428Z,88.70
2019-01-24T12:43:40.408Z,92.30